Portada
METAR-TAF:

METAR-TAF

Aeropuertos :

Searcy Municipal Airport

Searcy, Arkansas, Estados Unidos

latitud: 35-12-43N, longitud: 091-44-14W, altitud: 81 m

Observación

El informe se hizo hace 52 minutos, a las 21:56 UTC
Viento 12 kt del oeste con ráfagas de 16 kt
Temperatura 6°C
Humedad 70%
Presión 1017 hPa
Visibilidad: 16.1 km
Cielo nuboso a una altura de 2500 ft
Cielo cubierto a una altura de 3600 ft

METAR: KSRC 242156Z AUTO 26012G16KT 10SM BKN025 OVC036 06/01 A3004 RMK AO2 SLP176 T00560006

Hora: 16:48 (22:48 UTC)


TAF: falta

Observaciones y pronósticos meteorológicos de más de 4000 aeropuertos (mensajes METAR y TAF).

Los puntos amarillos y rojos representan las estaciones disponibles.

Ponga el ratón en el punto deseado para ver el nombre de la estación.

Haga clic para ver las observaciones y los pronósticos meteorológicos.

Para cambiar el mapa : haga clic en los botones verdes con una cruz de color negro para hacer un zoom, en el botón verde con un guión para alejar o en las flechas verdes para mapas adyacentes.


METAR-TAF: